Buttonville, Canada
Current Conditions -  °F | °C
As of 2:00 PM on Saturday 25 Oct 2014 (Local Time) from CYKZ Reporting Station
Overcast Overcast  
Wind Chill: 57°   Ceiling: 2000
Heat Index: 57°   Visibility: 12mi
Dew Point: 50°   Wind: 15mph
Humidity: 77%   Direction: 280°W
Pressure: 29.61"   Gusts: 21mph
Location:  43.86°N, 79.36°W
Report Text: CYKZ 251800Z 28013G18KT 12SM OVC020 14/10 A2961 RMK SC8 SLP030
Loading
Personal Weather Stations






























Interactive Weather Map
Tropical Storm Tracking
New forecast layout! Learn more

10-Day Weather Forecast

Advertisements
Track Severe Weather on mobile